createdAt,value
2022-12-23T00:00:43.486Z,2.70
2022-12-23T00:03:10.495Z,3.15
2022-12-23T00:05:41.368Z,2.47
2022-12-23T00:08:08.716Z,2.80
2022-12-23T00:10:39.482Z,3.00
2022-12-23T00:13:25.474Z,2.22
2022-12-23T00:16:03.449Z,2.33
2022-12-23T00:18:30.383Z,2.85
2022-12-23T00:21:08.336Z,3.15
2022-12-23T00:23:39.297Z,2.22
2022-12-23T00:26:06.539Z,2.47
2022-12-23T00:28:33.822Z,2.28
2022-12-23T00:31:08.629Z,2.33
2022-12-23T00:33:38.216Z,2.22
2022-12-23T00:36:15.650Z,1.98
2022-12-23T00:39:01.294Z,1.92
2022-12-23T00:41:46.880Z,2.25
2022-12-23T00:44:13.814Z,2.25
2022-12-23T00:46:40.739Z,2.30
2022-12-23T00:49:26.472Z,2.42
2022-12-23T00:51:53.407Z,2.25
2022-12-23T00:54:20.298Z,2.00
2022-12-23T00:56:47.144Z,1.88
2022-12-23T00:59:14.144Z,1.83
2022-12-23T01:02:00.144Z,2.10
2022-12-23T01:04:45.861Z,1.48
2022-12-23T01:07:12.869Z,2.10
2022-12-23T01:09:39.775Z,2.10
2022-12-23T01:12:07.439Z,2.00
2022-12-23T01:14:34.555Z,1.90
2022-12-23T01:17:01.646Z,2.05
2022-12-23T01:19:29.196Z,1.80
2022-12-23T01:21:57.099Z,1.80
2022-12-23T01:24:27.651Z,2.17
2022-12-23T01:26:54.777Z,2.22
2022-12-23T01:29:22.192Z,1.83
2022-12-23T01:31:50.370Z,2.10
2022-12-23T01:34:18.250Z,1.98
2022-12-23T01:36:45.504Z,1.70
2022-12-23T01:39:12.545Z,1.60
2022-12-23T01:41:57.996Z,1.35
2022-12-23T01:44:46.877Z,1.75
2022-12-23T01:47:24.139Z,1.77
2022-12-23T01:49:54.303Z,1.95
2022-12-23T01:52:21.669Z,1.60
2022-12-23T01:54:48.996Z,1.35
2022-12-23T01:57:16.004Z,2.30
2022-12-23T02:00:02.416Z,1.38
2022-12-23T02:02:55.455Z,1.90
2022-12-23T02:05:24.030Z,1.65
2022-12-23T02:08:12.154Z,1.70
2022-12-23T02:10:59.988Z,1.70
2022-12-23T02:14:30.084Z,1.55
2022-12-23T02:17:17.517Z,1.63
2022-12-23T02:20:09.609Z,1.50
2022-12-23T02:23:08.682Z,2.00
2022-12-23T02:25:53.724Z,2.20
2022-12-23T02:28:36.875Z,1.30
2022-12-23T02:31:16.079Z,1.80
2022-12-23T02:33:57.196Z,2.03
2022-12-23T02:36:47.207Z,1.73
2022-12-23T02:39:25.868Z,1.70
2022-12-23T02:42:37.714Z,1.65
2022-12-23T02:45:18.869Z,1.88
2022-12-23T02:47:59.747Z,2.75
2022-12-23T02:50:33.674Z,1.90
2022-12-23T02:53:08.069Z,2.40
2022-12-23T02:55:38.594Z,2.47
2022-12-23T02:58:11.328Z,2.42
2022-12-23T03:00:40.259Z,2.58
2022-12-23T03:03:07.300Z,2.88
2022-12-23T03:05:45.138Z,2.00
2022-12-23T03:08:19.197Z,2.38
2022-12-23T03:11:06.353Z,2.10
2022-12-23T03:13:47.549Z,2.70
2022-12-23T03:16:24.773Z,2.53
2022-12-23T03:19:01.917Z,2.55
2022-12-23T03:21:42.567Z,2.22
2022-12-23T03:24:34.408Z,3.10
2022-12-23T03:27:10.467Z,3.90
2022-12-23T03:30:08.493Z,2.45
2022-12-23T03:32:50.131Z,2.40
2022-12-23T03:35:21.639Z,2.38
2022-12-23T03:37:51.802Z,2.53
2022-12-23T03:40:35.164Z,2.60
2022-12-23T03:43:08.150Z,2.70
2022-12-23T03:45:43.496Z,2.50
2022-12-23T03:48:21.054Z,2.70
2022-12-23T03:50:52.767Z,2.63
2022-12-23T03:53:29.780Z,2.50
2022-12-23T03:56:02.507Z,3.20
2022-12-23T03:58:48.541Z,3.30
2022-12-23T04:01:43.343Z,3.28
2022-12-23T04:04:26.283Z,3.00
2022-12-23T04:07:21.391Z,2.85
2022-12-23T04:09:49.898Z,2.70
2022-12-23T04:12:17.417Z,3.17
2022-12-23T04:14:49.272Z,2.65
2022-12-23T04:17:19.811Z,3.08
2022-12-23T04:19:47.177Z,3.08
2022-12-23T04:22:15.969Z,3.38
2022-12-23T04:24:43.264Z,2.97
2022-12-23T04:27:13.620Z,2.63
2022-12-23T04:29:41.058Z,2.65
2022-12-23T04:32:09.957Z,2.97
2022-12-23T04:34:36.963Z,2.90
2022-12-23T04:37:03.923Z,3.28
2022-12-23T04:39:30.850Z,3.05
2022-12-23T04:41:57.723Z,2.83
2022-12-23T04:44:24.565Z,2.30
2022-12-23T04:46:51.487Z,2.13
2022-12-23T04:49:18.439Z,2.08
2022-12-23T04:51:45.872Z,3.17
2022-12-23T04:54:12.828Z,11.77
2022-12-23T04:56:40.144Z,14.15
2022-12-23T04:59:07.034Z,10.40
2022-12-23T05:01:34.052Z,4.80
2022-12-23T05:04:00.939Z,3.13
2022-12-23T05:06:27.925Z,2.20
2022-12-23T05:08:54.909Z,2.92
2022-12-23T05:11:21.852Z,2.75
2022-12-23T05:13:48.751Z,2.47
2022-12-23T05:16:15.640Z,1.95
2022-12-23T05:18:42.588Z,3.20
2022-12-23T05:21:09.481Z,2.33
2022-12-23T05:23:36.390Z,2.08
2022-12-23T05:26:03.373Z,2.92
2022-12-23T05:28:30.583Z,2.35
2022-12-23T05:31:03.570Z,3.08
2022-12-23T05:33:31.953Z,6.25
2022-12-23T05:35:59.363Z,6.80
2022-12-23T05:38:26.853Z,3.80
2022-12-23T05:40:53.878Z,3.53
2022-12-23T05:43:21.117Z,16.38
2022-12-23T05:45:48.937Z,12.32
2022-12-23T05:48:15.738Z,23.52
2022-12-23T05:50:42.635Z,5.20
2022-12-23T05:53:09.421Z,4.45
2022-12-23T05:55:36.528Z,8.75
2022-12-23T05:58:03.425Z,7.65
2022-12-23T06:00:30.246Z,3.22
2022-12-23T06:02:57.312Z,4.18
2022-12-23T06:05:24.304Z,4.72
2022-12-23T06:07:51.279Z,7.50
2022-12-23T06:10:18.209Z,3.60
2022-12-23T06:12:45.035Z,2.78
2022-12-23T06:15:11.935Z,2.97
2022-12-23T06:17:38.841Z,3.05
2022-12-23T06:20:06.395Z,3.15
2022-12-23T06:22:33.372Z,3.15
2022-12-23T06:25:00.155Z,2.72
2022-12-23T06:27:27.265Z,2.53
2022-12-23T06:29:54.054Z,2.88
2022-12-23T06:32:20.838Z,2.50
2022-12-23T06:34:49.720Z,2.83
2022-12-23T06:37:16.498Z,3.00
2022-12-23T06:39:43.243Z,2.63
2022-12-23T06:42:10.195Z,2.50
2022-12-23T06:44:36.922Z,3.28
2022-12-23T06:47:03.953Z,8.95
2022-12-23T06:49:30.757Z,14.23
2022-12-23T06:51:57.523Z,4.78
2022-12-23T06:54:24.260Z,3.47
2022-12-23T06:56:51.235Z,3.33
2022-12-23T06:59:17.999Z,3.10
2022-12-23T07:01:44.878Z,3.00
2022-12-23T07:04:11.670Z,3.15
2022-12-23T07:06:39.770Z,2.55
2022-12-23T07:09:07.450Z,3.13
2022-12-23T07:11:34.883Z,4.65
2022-12-23T07:14:01.666Z,2.60
2022-12-23T07:16:28.470Z,2.50
2022-12-23T07:18:55.277Z,2.75
2022-12-23T07:21:29.086Z,2.35
2022-12-23T07:23:56.759Z,3.22
2022-12-23T07:26:23.611Z,4.57
2022-12-23T07:28:50.362Z,3.70
2022-12-23T07:31:17.255Z,3.33
2022-12-23T07:33:44.363Z,3.38
2022-12-23T07:36:11.413Z,4.13
2022-12-23T07:38:38.265Z,2.40
2022-12-23T07:41:06.520Z,2.78
2022-12-23T07:43:33.421Z,2.50
2022-12-23T07:46:06.940Z,3.00
2022-12-23T07:48:33.838Z,2.80
2022-12-23T07:51:02.568Z,4.82
2022-12-23T07:53:29.888Z,4.55
2022-12-23T07:55:57.261Z,12.35
2022-12-23T07:58:25.052Z,5.40
2022-12-23T08:00:59.462Z,11.32
2022-12-23T08:03:26.445Z,11.45
2022-12-23T08:06:19.815Z,9.73
2022-12-23T08:08:47.208Z,12.68
2022-12-23T08:11:15.608Z,9.90
2022-12-23T08:13:44.990Z,18.90
2022-12-23T08:16:12.613Z,3.90
2022-12-23T08:18:41.728Z,5.20
2022-12-23T08:21:17.788Z,7.57
2022-12-23T08:23:45.496Z,13.43
2022-12-23T08:26:18.798Z,13.73
2022-12-23T08:28:46.755Z,15.88
2022-12-23T08:31:17.984Z,2.78
2022-12-23T08:33:48.410Z,3.10
2022-12-23T08:36:23.336Z,2.50
2022-12-23T08:38:53.190Z,2.60
2022-12-23T08:41:23.694Z,4.70
2022-12-23T08:43:51.440Z,6.22
2022-12-23T08:46:18.355Z,3.53
2022-12-23T08:48:49.480Z,2.75
2022-12-23T08:51:18.764Z,2.22
2022-12-23T08:53:46.821Z,2.65
2022-12-23T08:56:17.141Z,2.55
2022-12-23T08:58:46.894Z,3.10
2022-12-23T09:01:15.735Z,3.40
2022-12-23T09:03:43.236Z,4.13
2022-12-23T09:06:26.531Z,4.57
2022-12-23T09:08:56.510Z,5.35
2022-12-23T09:11:25.656Z,5.10
2022-12-23T09:13:52.915Z,4.45
2022-12-23T09:16:20.403Z,4.85
2022-12-23T09:18:47.244Z,6.15
2022-12-23T09:21:18.173Z,1.80
2022-12-23T09:23:45.437Z,3.20
2022-12-23T09:26:27.860Z,3.53
2022-12-23T09:28:56.026Z,2.78
2022-12-23T09:31:29.055Z,2.60
2022-12-23T09:33:59.584Z,2.78
2022-12-23T09:36:27.501Z,3.03
2022-12-23T09:38:56.364Z,2.40
2022-12-23T09:42:01.773Z,2.50
2022-12-23T09:44:49.539Z,2.15
2022-12-23T09:47:21.346Z,2.00
2022-12-23T09:49:58.265Z,2.70
2022-12-23T09:52:33.624Z,9.50
2022-12-23T09:55:00.986Z,2.50
2022-12-23T09:58:01.203Z,2.42
2022-12-23T10:00:39.766Z,4.88
2022-12-23T10:03:19.301Z,1.73
2022-12-23T10:06:11.172Z,3.70
2022-12-23T10:08:42.261Z,7.38
2022-12-23T10:11:25.981Z,2.47
2022-12-23T10:14:24.638Z,1.95
2022-12-23T10:17:15.933Z,2.70
2022-12-23T10:19:46.289Z,2.75
2022-12-23T10:22:20.585Z,5.38
2022-12-23T10:24:49.417Z,3.42
2022-12-23T10:27:29.854Z,2.83
2022-12-23T10:30:13.923Z,3.03
2022-12-23T10:33:18.367Z,1.90
2022-12-23T10:36:10.157Z,9.52
2022-12-23T10:38:48.112Z,6.38
2022-12-23T10:41:31.694Z,1.88
2022-12-23T10:44:37.935Z,1.70
2022-12-23T10:47:28.170Z,2.22
2022-12-23T10:50:19.959Z,2.22
2022-12-23T10:52:49.171Z,1.50
2022-12-23T10:55:27.305Z,1.75
2022-12-23T10:58:14.715Z,1.73
2022-12-23T11:00:47.904Z,1.95
2022-12-23T11:03:30.007Z,2.78
2022-12-23T11:05:58.865Z,3.10
2022-12-23T11:08:31.614Z,4.72
2022-12-23T11:11:01.727Z,8.13
2022-12-23T11:13:33.857Z,7.32
2022-12-23T11:16:19.691Z,6.80
2022-12-23T11:18:58.114Z,3.33
2022-12-23T11:21:25.867Z,2.60
2022-12-23T11:24:09.556Z,2.28
2022-12-23T11:26:36.988Z,1.50
2022-12-23T11:29:12.638Z,1.40
2022-12-23T11:31:45.083Z,1.83
2022-12-23T11:34:18.972Z,1.80
2022-12-23T11:37:03.363Z,2.40
2022-12-23T11:39:36.962Z,3.33
2022-12-23T11:42:18.012Z,4.13
2022-12-23T11:44:49.016Z,16.15
2022-12-23T11:47:22.699Z,7.80
2022-12-23T11:49:58.526Z,2.72
2022-12-23T11:52:32.828Z,1.70
2022-12-23T11:55:02.040Z,4.47
2022-12-23T11:57:46.419Z,15.68
2022-12-23T12:00:28.351Z,2.20
2022-12-23T12:02:59.002Z,1.80
2022-12-23T12:05:30.141Z,4.63
2022-12-23T12:08:04.018Z,4.25
2022-12-23T12:10:35.379Z,2.00
2022-12-23T12:13:05.805Z,22.13
2022-12-23T12:15:41.064Z,6.07
2022-12-23T12:18:13.492Z,12.13
2022-12-23T12:20:53.685Z,6.60
2022-12-23T12:23:40.942Z,2.90
2022-12-23T12:26:17.270Z,2.58
2022-12-23T12:28:48.396Z,4.05
2022-12-23T12:31:28.005Z,4.70
2022-12-23T12:34:03.911Z,4.43
2022-12-23T12:36:43.946Z,6.53
2022-12-23T12:39:21.127Z,4.50
2022-12-23T12:42:05.031Z,6.82
2022-12-23T12:45:01.000Z,5.90
2022-12-23T12:48:13.033Z,4.43
2022-12-23T12:50:58.547Z,1.60
2022-12-23T12:53:30.278Z,1.45
2022-12-23T12:56:06.109Z,1.60
2022-12-23T12:58:34.922Z,2.80
2022-12-23T13:01:36.974Z,3.13
2022-12-23T13:04:30.925Z,2.58
2022-12-23T13:07:20.644Z,2.63
2022-12-23T13:10:02.096Z,3.22
2022-12-23T13:12:36.209Z,1.90
2022-12-23T13:15:15.202Z,4.10
2022-12-23T13:18:08.042Z,2.80
2022-12-23T13:20:57.429Z,3.60
2022-12-23T13:23:44.864Z,1.65
2022-12-23T13:26:32.700Z,1.80
2022-12-23T13:29:31.018Z,1.73
2022-12-23T13:32:17.159Z,2.05
2022-12-23T13:35:12.563Z,2.08
2022-12-23T13:38:05.358Z,2.30
2022-12-23T13:41:03.277Z,2.03
2022-12-23T13:43:42.841Z,2.95
2022-12-23T13:46:23.082Z,3.05
2022-12-23T13:49:17.496Z,2.80
2022-12-23T13:54:33.850Z,6.45
2022-12-23T13:57:20.643Z,5.82
2022-12-23T14:00:06.304Z,5.72
2022-12-23T14:03:17.251Z,4.13
2022-12-23T14:05:54.337Z,5.57
2022-12-23T14:08:27.449Z,5.57
2022-12-23T14:11:12.396Z,4.68
2022-12-23T14:13:52.925Z,4.53
2022-12-23T14:17:07.784Z,4.13
2022-12-23T14:19:52.429Z,3.50
2022-12-23T14:22:58.976Z,3.20
2022-12-23T14:25:33.814Z,2.67
2022-12-23T14:28:19.671Z,2.88
2022-12-23T14:30:47.093Z,3.20
2022-12-23T14:33:18.585Z,3.45
2022-12-23T14:35:46.314Z,4.60
2022-12-23T14:38:15.783Z,12.93
2022-12-23T14:40:42.524Z,13.18
2022-12-23T14:43:33.008Z,9.60
2022-12-23T14:46:05.316Z,12.57
2022-12-23T14:48:44.559Z,8.93
2022-12-23T14:51:14.178Z,8.50
2022-12-23T14:53:53.910Z,5.22
2022-12-23T14:56:27.362Z,4.80
2022-12-23T14:59:12.558Z,4.93
2022-12-23T15:01:54.261Z,4.68
2022-12-23T15:04:23.868Z,7.57
2022-12-23T15:06:58.935Z,8.63
2022-12-23T15:09:40.209Z,8.63
2022-12-23T15:12:18.780Z,8.23
2022-12-23T15:14:52.132Z,8.48
2022-12-23T15:17:31.120Z,10.00
2022-12-23T15:20:14.101Z,8.80
2022-12-23T15:22:43.778Z,8.98
2022-12-23T15:25:27.643Z,7.70
2022-12-23T15:28:01.483Z,7.15
2022-12-23T15:30:34.071Z,7.43
2022-12-23T15:33:11.944Z,8.20
2022-12-23T15:35:52.467Z,5.90
2022-12-23T15:38:21.314Z,4.95
2022-12-23T15:41:18.839Z,4.65
2022-12-23T15:43:45.789Z,5.50
2022-12-23T15:46:28.679Z,7.68
2022-12-23T15:48:56.779Z,11.90
2022-12-23T15:54:31.441Z,6.63
2022-12-23T15:57:00.423Z,8.38
2022-12-23T15:59:31.912Z,9.85
2022-12-23T16:01:59.027Z,14.13
2022-12-23T16:04:29.483Z,13.05
2022-12-23T16:06:56.588Z,11.93
2022-12-23T16:09:32.233Z,10.60
2022-12-23T16:12:22.971Z,8.10
2022-12-23T16:14:55.972Z,7.20
2022-12-23T16:17:34.766Z,9.77
2022-12-23T16:20:42.010Z,7.85
2022-12-23T16:23:11.053Z,8.52
2022-12-23T16:25:38.726Z,8.07
2022-12-23T16:28:21.777Z,7.28
2022-12-23T16:30:52.392Z,7.53
2022-12-23T16:33:37.319Z,8.13
2022-12-23T16:36:25.274Z,9.80
2022-12-23T16:39:19.049Z,7.93
2022-12-23T16:41:45.871Z,7.25
2022-12-23T16:44:12.652Z,7.82
2022-12-23T16:46:43.978Z,7.65
2022-12-23T16:49:16.362Z,11.55
2022-12-23T16:51:43.255Z,11.48
2022-12-23T16:54:14.805Z,11.50
2022-12-23T16:56:41.656Z,8.20
2022-12-23T16:59:09.952Z,10.15
2022-12-23T17:01:39.623Z,8.50
2022-12-23T17:04:07.415Z,8.65
2022-12-23T17:06:36.064Z,8.32
2022-12-23T17:09:04.340Z,7.68
2022-12-23T17:11:40.207Z,10.82
2022-12-23T17:14:15.545Z,8.93
2022-12-23T17:16:43.335Z,9.80
2022-12-23T17:19:10.138Z,21.10
2022-12-23T17:21:39.158Z,22.50
2022-12-23T17:24:26.249Z,22.80
2022-12-23T17:26:54.403Z,19.25
2022-12-23T17:29:21.209Z,9.50
2022-12-23T17:31:48.779Z,7.55
2022-12-23T17:34:21.561Z,7.35
2022-12-23T17:36:50.578Z,8.45
2022-12-23T17:39:18.826Z,12.95
2022-12-23T17:41:46.008Z,15.50
2022-12-23T17:44:17.487Z,11.77
2022-12-23T17:46:45.850Z,13.15
2022-12-23T17:49:12.765Z,11.52
2022-12-23T17:51:40.531Z,16.35
2022-12-23T17:54:10.224Z,14.30
2022-12-23T17:56:37.003Z,12.48
2022-12-23T17:59:04.104Z,10.23
2022-12-23T18:01:32.250Z,10.38
2022-12-23T18:03:59.991Z,8.35
2022-12-23T18:06:28.940Z,8.85
2022-12-23T18:08:58.923Z,9.00
2022-12-23T18:11:39.062Z,8.60
2022-12-23T18:14:13.141Z,7.95
2022-12-23T18:16:40.186Z,8.30
2022-12-23T18:19:16.617Z,15.02
2022-12-23T18:21:43.485Z,44.53
2022-12-23T18:24:10.900Z,45.30
2022-12-23T18:26:38.084Z,39.15
2022-12-23T18:29:05.235Z,39.35
2022-12-23T18:31:32.772Z,50.72
2022-12-23T18:34:00.350Z,40.75
2022-12-23T18:36:35.855Z,27.13
2022-12-23T18:39:02.657Z,36.75
2022-12-23T18:41:29.396Z,27.17
2022-12-23T18:43:56.826Z,39.55
2022-12-23T18:46:23.720Z,23.98
2022-12-23T18:48:51.719Z,22.73
2022-12-23T18:51:20.950Z,22.58
2022-12-23T18:53:48.675Z,25.55
2022-12-23T18:56:17.599Z,26.88
2022-12-23T18:58:44.323Z,22.65
2022-12-23T19:01:15.524Z,18.05
2022-12-23T19:03:43.163Z,18.42
2022-12-23T19:06:13.561Z,12.05
2022-12-23T19:08:41.495Z,10.85
2022-12-23T19:11:13.947Z,8.32
2022-12-23T19:13:41.305Z,11.80
2022-12-23T19:16:11.586Z,9.65
2022-12-23T19:18:38.886Z,8.10
2022-12-23T19:21:05.977Z,9.40
2022-12-23T19:23:33.231Z,21.90
2022-12-23T19:26:00.036Z,18.42
2022-12-23T19:28:27.219Z,19.08
2022-12-23T19:30:54.031Z,11.75
2022-12-23T19:33:20.804Z,9.93
2022-12-23T19:35:47.559Z,8.02
2022-12-23T19:38:14.329Z,7.15
2022-12-23T19:40:41.237Z,6.85
2022-12-23T19:43:08.239Z,8.98
2022-12-23T19:45:35.000Z,14.05
2022-12-23T19:48:01.789Z,13.93
2022-12-23T19:50:30.380Z,12.52
2022-12-23T19:52:57.557Z,11.05
2022-12-23T19:55:24.308Z,11.57
2022-12-23T19:57:52.342Z,12.68
2022-12-23T20:00:19.277Z,15.90
2022-12-23T20:02:46.287Z,16.27
2022-12-23T20:05:13.164Z,24.85
2022-12-23T20:07:39.984Z,24.45
2022-12-23T20:10:07.542Z,22.63
2022-12-23T20:12:34.354Z,21.42
2022-12-23T20:15:01.181Z,20.10
2022-12-23T20:17:27.928Z,20.50
2022-12-23T20:19:54.669Z,18.48
2022-12-23T20:22:21.667Z,8.77
2022-12-23T20:24:48.674Z,12.18
2022-12-23T20:27:16.250Z,10.25
2022-12-23T20:29:43.719Z,6.22
2022-12-23T20:32:10.734Z,7.47
2022-12-23T20:34:40.010Z,6.18
2022-12-23T20:37:07.669Z,6.03
2022-12-23T20:39:35.262Z,3.88
2022-12-23T20:42:02.130Z,4.00
2022-12-23T20:44:37.502Z,2.88
2022-12-23T20:47:07.905Z,3.03
2022-12-23T20:49:34.685Z,2.90
2022-12-23T20:52:01.897Z,2.45
2022-12-23T20:54:33.281Z,1.98
2022-12-23T20:57:02.437Z,2.03
2022-12-23T20:59:29.545Z,2.20
2022-12-23T21:01:58.940Z,2.20
2022-12-23T21:04:25.897Z,1.92
2022-12-23T21:06:52.732Z,10.20
2022-12-23T21:09:19.479Z,2.35
2022-12-23T21:11:47.406Z,4.75
2022-12-23T21:14:15.287Z,8.63
2022-12-23T21:16:43.130Z,1.90
2022-12-23T21:19:17.230Z,2.70
2022-12-23T21:21:44.543Z,2.33
2022-12-23T21:24:11.793Z,2.83
2022-12-23T21:26:38.888Z,2.20
2022-12-23T21:29:07.255Z,3.38
2022-12-23T21:31:36.699Z,5.10
2022-12-23T21:34:03.795Z,3.88
2022-12-23T21:36:33.909Z,4.30
2022-12-23T21:39:01.180Z,3.55
2022-12-23T21:41:31.036Z,1.70
2022-12-23T21:43:59.477Z,1.60
2022-12-23T21:46:27.650Z,1.33
2022-12-23T21:48:56.464Z,1.50
2022-12-23T21:51:26.530Z,1.23
2022-12-23T21:53:55.521Z,1.50
2022-12-23T21:56:28.086Z,1.30
2022-12-23T21:58:56.626Z,1.40
2022-12-23T22:01:23.574Z,1.30
2022-12-23T22:03:51.317Z,1.60
2022-12-23T22:06:24.937Z,1.30
2022-12-23T22:08:52.709Z,1.13
2022-12-23T22:11:25.678Z,1.45
2022-12-23T22:13:52.790Z,2.70
2022-12-23T22:16:22.734Z,1.33
2022-12-23T22:18:50.649Z,1.30
2022-12-23T22:21:20.373Z,1.33
2022-12-23T22:23:47.846Z,1.05
2022-12-23T22:26:24.780Z,1.08
2022-12-23T22:28:53.949Z,1.20
2022-12-23T22:31:44.324Z,1.58
2022-12-23T22:34:14.995Z,1.05
2022-12-23T22:36:42.030Z,0.95
2022-12-23T22:39:19.470Z,1.20
2022-12-23T22:41:47.427Z,1.50
2022-12-23T22:44:15.197Z,1.10
2022-12-23T22:46:42.607Z,1.33
2022-12-23T22:49:13.942Z,1.30
2022-12-23T22:51:41.781Z,1.20
2022-12-23T22:54:09.189Z,2.58
2022-12-23T22:56:36.466Z,2.42
2022-12-23T22:59:04.958Z,2.10
2022-12-23T23:01:34.519Z,2.40
2022-12-23T23:04:03.198Z,2.45
2022-12-23T23:06:35.130Z,2.20
2022-12-23T23:09:02.209Z,1.80
2022-12-23T23:11:29.615Z,1.95
2022-12-23T23:13:57.285Z,1.55
2022-12-23T23:16:25.223Z,1.10
2022-12-23T23:18:53.016Z,1.60
2022-12-23T23:21:20.531Z,1.27
2022-12-23T23:23:47.914Z,1.50
2022-12-23T23:26:15.254Z,1.58
2022-12-23T23:28:42.339Z,1.40
2022-12-23T23:31:40.626Z,1.80
2022-12-23T23:33:58.061Z,1.10
2022-12-23T23:36:25.179Z,1.10
2022-12-23T23:38:52.105Z,1.10
2022-12-23T23:41:23.221Z,1.40
2022-12-23T23:43:51.593Z,1.33
2022-12-23T23:46:18.551Z,1.00
2022-12-23T23:48:45.492Z,1.13
2022-12-23T23:51:12.936Z,1.10
2022-12-23T23:53:40.683Z,1.40
2022-12-23T23:56:08.822Z,0.82
2022-12-23T23:58:36.732Z,1.83
